Time;durP1;ratioP1;P1;durP2;ratioP2;P2;SDS_P1;SDS_P2;PMS_P1;PMS_P2;Temp;Humidity;BMP_temperature;BMP_pressure;BME280_temperature;BME280_humidity;BME280_pressure;Samples;Min_cycle;Max_cycle;Signal;HPM_P1;HPM_P2
2023/07/06 00:00:32;;;;;;;4.90;2.58;;;;;;;;;;5085361;27;20056;-62
2023/07/06 00:02:59;;;;;;;11.02;3.10;;;;;;;;;;5094927;27;20051;-61
2023/07/06 00:05:26;;;;;;;16.25;7.43;;;;;;;;;;5108910;27;20093;-60
2023/07/06 00:07:53;;;;;;;16.38;8.90;;;;;;;;;;5089795;27;20124;-61
2023/07/06 00:10:20;;;;;;;24.92;12.50;;;;;;;;;;5099977;28;20064;-61
2023/07/06 00:12:48;;;;;;;10.75;4.40;;;;;;;;;;5109337;27;20055;-61
2023/07/06 00:15:15;;;;;;;9.13;3.53;;;;;;;;;;5095603;28;20055;-62
2023/07/06 00:17:41;;;;;;;7.60;3.50;;;;;;;;;;5075301;28;20083;-61
2023/07/06 00:20:12;;;;;;;8.32;3.58;;;;;;;;;;5095700;28;20105;-61
2023/07/06 00:22:39;;;;;;;8.95;3.40;;;;;;;;;;5071881;28;20231;-61
2023/07/06 00:25:07;;;;;;;7.22;3.28;;;;;;;;;;5082998;28;20087;-61
2023/07/06 00:27:34;;;;;;;9.83;3.67;;;;;;;;;;5077717;28;20056;-60
2023/07/06 00:30:15;;;;;;;6.82;3.20;;;;;;;;;;5091837;28;20056;-61
2023/07/06 00:32:42;;;;;;;9.50;3.05;;;;;;;;;;5072833;28;20096;-60
2023/07/06 00:35:10;;;;;;;8.77;3.08;;;;;;;;;;5080759;28;20144;-59
2023/07/06 00:37:37;;;;;;;8.15;3.55;;;;;;;;;;5077251;28;20082;-61
2023/07/06 00:40:07;;;;;;;7.90;3.67;;;;;;;;;;5077887;28;20139;-61
2023/07/06 00:42:35;;;;;;;9.07;3.65;;;;;;;;;;5088505;28;20059;-60
2023/07/06 00:45:04;;;;;;;8.02;3.58;;;;;;;;;;5079175;28;20129;-61
2023/07/06 00:47:34;;;;;;;7.55;3.40;;;;;;;;;;5078431;28;20101;-63
2023/07/06 00:50:06;;;;;;;9.57;3.92;;;;;;;;;;5056948;28;20060;-61
2023/07/06 00:52:33;;;;;;;6.95;3.08;;;;;;;;;;5058067;28;20056;-61
2023/07/06 00:55:01;;;;;;;9.00;3.20;;;;;;;;;;5081032;28;20076;-60
2023/07/06 00:57:29;;;;;;;8.25;3.17;;;;;;;;;;5077724;28;20048;-60
2023/07/06 00:59:56;;;;;;;7.57;3.00;;;;;;;;;;5074138;28;20056;-61
2023/07/06 01:02:27;;;;;;;9.93;3.58;;;;;;;;;;5070985;28;20128;-61
2023/07/06 01:04:54;;;;;;;11.40;3.53;;;;;;;;;;5080277;28;20070;-62
2023/07/06 01:07:25;;;;;;;10.57;3.22;;;;;;;;;;5078550;28;20080;-61
2023/07/06 01:09:52;;;;;;;11.55;3.30;;;;;;;;;;5090987;28;20055;-62
2023/07/06 01:12:19;;;;;;;8.32;3.30;;;;;;;;;;5093377;28;20060;-61
2023/07/06 01:14:46;;;;;;;6.60;3.03;;;;;;;;;;5090401;28;20105;-62
2023/07/06 01:17:16;;;;;;;7.60;3.28;;;;;;;;;;5079636;28;20061;-60
2023/07/06 01:20:03;;;;;;;9.02;3.42;;;;;;;;;;5072583;28;20053;-60
2023/07/06 01:23:06;;;;;;;7.87;3.40;;;;;;;;;;5051218;28;20110;-61
2023/07/06 01:25:52;;;;;;;5.72;2.78;;;;;;;;;;5040981;28;20106;-61
2023/07/06 01:28:35;;;;;;;9.93;3.20;;;;;;;;;;5070747;28;20059;-62
2023/07/06 01:31:28;;;;;;;5.28;2.75;;;;;;;;;;5077850;28;20059;-61
2023/07/06 01:33:58;;;;;;;9.60;3.15;;;;;;;;;;5077667;28;20105;-61
2023/07/06 01:36:29;;;;;;;8.32;3.30;;;;;;;;;;5071275;28;20055;-61
2023/07/06 01:39:14;;;;;;;8.50;3.17;;;;;;;;;;5079314;28;20044;-60
2023/07/06 01:41:41;;;;;;;9.93;3.28;;;;;;;;;;5059279;28;20064;-61
2023/07/06 01:44:09;;;;;;;8.13;3.60;;;;;;;;;;5055608;28;20060;-61
2023/07/06 01:46:37;;;;;;;12.60;3.58;;;;;;;;;;5029715;28;20060;-62
2023/07/06 01:49:05;;;;;;;7.57;3.55;;;;;;;;;;5032614;28;20071;-61
2023/07/06 01:51:35;;;;;;;9.20;3.88;;;;;;;;;;5038038;28;20155;-61
2023/07/06 01:54:05;;;;;;;8.93;3.67;;;;;;;;;;5037117;28;20049;-62
2023/07/06 01:56:38;;;;;;;7.00;3.42;;;;;;;;;;5066823;28;20052;-62
2023/07/06 01:59:08;;;;;;;6.25;3.17;;;;;;;;;;5054136;28;20061;-61
2023/07/06 02:01:41;;;;;;;7.93;3.53;;;;;;;;;;5041632;28;20089;-63
2023/07/06 02:04:08;;;;;;;10.85;3.78;;;;;;;;;;5076203;28;20051;-62
2023/07/06 02:06:36;;;;;;;7.50;3.78;;;;;;;;;;5078263;28;20051;-62
2023/07/06 02:09:03;;;;;;;11.05;3.83;;;;;;;;;;5077815;28;20117;-62
2023/07/06 02:11:30;;;;;;;7.97;4.22;;;;;;;;;;5045608;28;20084;-63
2023/07/06 02:13:57;;;;;;;10.55;4.35;;;;;;;;;;5056306;28;20064;-62
2023/07/06 02:16:24;;;;;;;12.02;4.95;;;;;;;;;;5073569;28;20060;-61
2023/07/06 02:18:53;;;;;;;11.85;4.55;;;;;;;;;;5067058;28;20052;-61
2023/07/06 02:21:22;;;;;;;12.80;4.50;;;;;;;;;;5074016;28;23033;-61
2023/07/06 02:23:48;;;;;;;8.73;4.80;;;;;;;;;;5069598;28;20123;-62
2023/07/06 02:26:15;;;;;;;12.45;5.15;;;;;;;;;;5075530;28;20125;-61
2023/07/06 02:28:42;;;;;;;10.18;4.28;;;;;;;;;;5079328;28;20059;-62
2023/07/06 02:31:09;;;;;;;13.15;4.70;;;;;;;;;;5071867;28;20166;-62
2023/07/06 02:33:36;;;;;;;13.63;4.80;;;;;;;;;;5072552;28;20059;-61
2023/07/06 02:36:04;;;;;;;10.90;4.57;;;;;;;;;;5076073;28;20060;-60
2023/07/06 02:38:30;;;;;;;15.90;4.43;;;;;;;;;;5077125;28;20060;-62
2023/07/06 02:40:58;;;;;;;10.30;4.47;;;;;;;;;;5076822;28;20056;-61
2023/07/06 02:43:26;;;;;;;11.25;4.68;;;;;;;;;;5052048;28;20229;-61
2023/07/06 02:45:52;;;;;;;9.90;4.75;;;;;;;;;;5051746;28;22215;-61
2023/07/06 02:48:19;;;;;;;7.97;4.15;;;;;;;;;;5056744;28;20052;-60
2023/07/06 02:50:49;;;;;;;10.93;4.70;;;;;;;;;;5057048;28;20064;-61
2023/07/06 02:53:17;;;;;;;12.18;4.47;;;;;;;;;;5071855;28;20109;-61
2023/07/06 02:55:45;;;;;;;10.60;4.63;;;;;;;;;;5072905;28;20048;-61
2023/07/06 02:58:12;;;;;;;12.23;4.75;;;;;;;;;;5077612;28;20109;-61
2023/07/06 03:00:39;;;;;;;11.27;4.60;;;;;;;;;;5093651;28;20106;-62
2023/07/06 03:03:07;;;;;;;8.50;4.68;;;;;;;;;;5070900;28;20060;-60
2023/07/06 03:05:35;;;;;;;9.77;4.45;;;;;;;;;;5070476;28;20067;-61
2023/07/06 03:08:02;;;;;;;11.23;4.45;;;;;;;;;;5077381;28;20150;-62
2023/07/06 03:10:32;;;;;;;10.60;4.30;;;;;;;;;;5076106;28;20121;-61
2023/07/06 03:12:59;;;;;;;8.80;4.30;;;;;;;;;;5072260;28;20076;-61
2023/07/06 03:15:28;;;;;;;10.23;3.95;;;;;;;;;;5078874;28;20064;-62
2023/07/06 03:17:55;;;;;;;7.25;3.85;;;;;;;;;;5071711;28;20068;-61
2023/07/06 03:20:23;;;;;;;8.98;3.88;;;;;;;;;;5078255;28;20068;-61
2023/07/06 03:22:52;;;;;;;8.75;3.53;;;;;;;;;;5073645;28;20052;-61
2023/07/06 03:25:21;;;;;;;8.88;3.45;;;;;;;;;;5077056;28;20058;-61
2023/07/06 03:27:49;;;;;;;7.40;3.75;;;;;;;;;;5084973;28;20121;-60
2023/07/06 03:30:20;;;;;;;10.55;3.83;;;;;;;;;;5077830;28;20083;-61
2023/07/06 03:32:47;;;;;;;10.50;3.85;;;;;;;;;;5070878;28;20052;-61
2023/07/06 03:35:14;;;;;;;11.18;3.40;;;;;;;;;;5075737;28;20101;-61
2023/07/06 03:37:42;;;;;;;8.57;3.42;;;;;;;;;;5069427;28;20048;-62
2023/07/06 03:40:11;;;;;;;8.32;3.60;;;;;;;;;;5076191;28;20063;-62
2023/07/06 03:42:39;;;;;;;10.05;3.30;;;;;;;;;;5071497;28;20110;-61
2023/07/06 03:45:10;;;;;;;8.70;3.25;;;;;;;;;;5077475;28;20144;-61
2023/07/06 03:47:37;;;;;;;20.13;3.17;;;;;;;;;;5084152;28;20055;-62
2023/07/06 03:50:08;;;;;;;10.25;3.15;;;;;;;;;;5079385;28;20056;-61
2023/07/06 03:52:37;;;;;;;11.48;3.25;;;;;;;;;;5075429;28;20226;-61
2023/07/06 03:55:05;;;;;;;10.40;3.33;;;;;;;;;;5079963;28;20112;-61
2023/07/06 03:57:33;;;;;;;9.50;3.25;;;;;;;;;;5076216;28;20060;-61
2023/07/06 03:59:59;;;;;;;12.98;2.95;;;;;;;;;;5075238;28;20040;-61
2023/07/06 04:02:27;;;;;;;8.88;3.15;;;;;;;;;;5061916;28;20060;-61
2023/07/06 04:04:55;;;;;;;5.97;2.60;;;;;;;;;;5060767;28;20061;-60
2023/07/06 04:07:22;;;;;;;6.20;2.70;;;;;;;;;;5058828;28;20052;-61
2023/07/06 04:09:49;;;;;;;7.22;2.92;;;;;;;;;;5050743;28;20075;-61
2023/07/06 04:12:16;;;;;;;10.18;3.22;;;;;;;;;;5067083;28;20113;-61
2023/07/06 04:14:43;;;;;;;7.38;3.00;;;;;;;;;;5096698;28;20301;-61
2023/07/06 04:17:10;;;;;;;8.60;3.00;;;;;;;;;;5079268;28;20059;-61
2023/07/06 04:19:38;;;;;;;8.43;2.97;;;;;;;;;;5070105;28;20056;-61
2023/07/06 04:22:05;;;;;;;7.70;2.67;;;;;;;;;;5076930;28;20110;-62
2023/07/06 04:24:34;;;;;;;8.93;2.65;;;;;;;;;;5076037;28;20075;-61
2023/07/06 04:27:00;;;;;;;;;;;;;;;;;;5075671;28;20044;-61
2023/07/06 04:29:29;;;;;;;10.20;2.70;;;;;;;;;;5072573;28;19970;-60
2023/07/06 04:31:58;;;;;;;6.85;2.50;;;;;;;;;;5053831;28;20063;-61
2023/07/06 04:34:25;;;;;;;9.77;2.88;;;;;;;;;;5075823;28;20061;-62
2023/07/06 04:36:53;;;;;;;9.18;3.97;;;;;;;;;;5075664;28;20110;-60
2023/07/06 04:39:20;;;;;;;10.80;3.25;;;;;;;;;;5074999;28;20052;-61
2023/07/06 04:41:48;;;;;;;11.88;2.85;;;;;;;;;;5057723;28;20044;-62
2023/07/06 04:44:15;;;;;;;7.20;2.78;;;;;;;;;;5059003;28;20066;-61
2023/07/06 04:46:42;;;;;;;10.02;2.92;;;;;;;;;;5054608;28;20060;-61
2023/07/06 04:49:09;;;;;;;9.55;2.97;;;;;;;;;;5063177;28;20123;-61
2023/07/06 04:51:36;;;;;;;8.77;3.08;;;;;;;;;;5049800;28;20128;-61
2023/07/06 04:54:04;;;;;;;7.82;2.80;;;;;;;;;;5076103;28;20155;-61
2023/07/06 04:56:31;;;;;;;11.32;3.08;;;;;;;;;;5078050;28;20125;-61
2023/07/06 04:58:58;;;;;;;8.25;2.83;;;;;;;;;;5094581;28;20052;-61
2023/07/06 05:01:26;;;;;;;7.22;2.55;;;;;;;;;;5064610;28;20209;-62
2023/07/06 05:03:53;;;;;;;;;;;;;;;;;;5075331;28;20063;-61
2023/07/06 05:06:20;;;;;;;7.65;2.85;;;;;;;;;;5062449;28;19971;-62
2023/07/06 05:08:49;;;;;;;7.50;2.92;;;;;;;;;;5060967;28;20057;-62
2023/07/06 05:11:17;;;;;;;10.65;3.63;;;;;;;;;;5060156;28;20109;-62
2023/07/06 05:13:44;;;;;;;9.50;3.60;;;;;;;;;;5068180;28;20064;-61
2023/07/06 05:16:11;;;;;;;11.60;3.97;;;;;;;;;;5076616;28;20044;-62
2023/07/06 05:18:38;;;;;;;83.50;41.95;;;;;;;;;;5075969;28;20147;-61
2023/07/06 05:21:04;;;;;;;32.50;16.75;;;;;;;;;;5074238;28;20064;-62
2023/07/06 05:23:31;;;;;;;16.33;4.60;;;;;;;;;;5069845;28;20101;-62
2023/07/06 05:26:02;;;;;;;10.48;3.60;;;;;;;;;;5075485;28;20063;-62
2023/07/06 05:28:31;;;;;;;11.60;3.45;;;;;;;;;;5077002;28;20071;-63
2023/07/06 05:31:00;;;;;;;10.45;4.18;;;;;;;;;;5076425;28;20060;-62
2023/07/06 05:33:26;;;;;;;8.65;3.58;;;;;;;;;;5049699;28;20054;-62
2023/07/06 05:35:53;;;;;;;14.35;4.47;;;;;;;;;;5066541;28;20066;-62
2023/07/06 05:38:20;;;;;;;14.20;3.50;;;;;;;;;;5056572;28;20064;-62
2023/07/06 05:40:47;;;;;;;10.10;3.50;;;;;;;;;;5056613;28;20056;-62
2023/07/06 05:43:14;;;;;;;9.63;3.53;;;;;;;;;;5051485;28;20147;-62
2023/07/06 05:45:42;;;;;;;12.40;3.58;;;;;;;;;;5049306;28;20076;-62
2023/07/06 05:48:10;;;;;;;41.72;16.98;;;;;;;;;;5055493;28;20052;-62
2023/07/06 05:50:37;;;;;;;124.22;59.13;;;;;;;;;;5071702;28;20057;-62
2023/07/06 05:53:06;;;;;;;25.77;7.97;;;;;;;;;;5071678;28;20125;-62
2023/07/06 05:55:33;;;;;;;12.40;4.10;;;;;;;;;;5070057;28;20135;-62
2023/07/06 05:58:01;;;;;;;13.25;4.03;;;;;;;;;;5056384;28;20134;-62
2023/07/06 06:00:28;;;;;;;12.77;4.37;;;;;;;;;;5038582;28;20064;-62
2023/07/06 06:02:58;;;;;;;16.63;3.90;;;;;;;;;;5048197;28;20049;-62
2023/07/06 06:05:25;;;;;;;11.43;4.20;;;;;;;;;;5034309;28;20053;-63
2023/07/06 06:07:52;;;;;;;16.83;4.03;;;;;;;;;;5047258;28;20967;-63
2023/07/06 06:10:22;;;;;;;9.77;4.10;;;;;;;;;;5051962;28;20059;-63
2023/07/06 06:12:49;;;;;;;14.13;4.55;;;;;;;;;;5081564;28;20190;-63
2023/07/06 06:15:17;;;;;;;13.38;4.60;;;;;;;;;;5076266;28;20055;-62
2023/07/06 06:17:44;;;;;;;17.13;5.03;;;;;;;;;;5068811;28;20059;-62
2023/07/06 06:20:12;;;;;;;16.15;6.75;;;;;;;;;;5093860;28;20055;-63
2023/07/06 06:22:40;;;;;;;15.98;5.80;;;;;;;;;;5071940;28;20059;-63
2023/07/06 06:25:07;;;;;;;14.00;5.53;;;;;;;;;;5072327;28;20181;-63
2023/07/06 06:27:34;;;;;;;22.33;5.82;;;;;;;;;;5050159;28;20052;-63
2023/07/06 06:30:01;;;;;;;15.85;4.95;;;;;;;;;;5056267;28;20113;-63
2023/07/06 06:32:29;;;;;;;17.77;5.72;;;;;;;;;;5051553;28;20076;-62
2023/07/06 06:34:57;;;;;;;16.42;5.50;;;;;;;;;;5056390;28;20067;-62
2023/07/06 06:37:29;;;;;;;18.00;5.32;;;;;;;;;;5072325;28;20057;-62
2023/07/06 06:39:55;;;;;;;16.05;5.55;;;;;;;;;;5058801;28;20070;-61
2023/07/06 06:42:22;;;;;;;21.45;6.38;;;;;;;;;;5066898;28;20080;-60
2023/07/06 06:44:49;;;;;;;18.85;6.90;;;;;;;;;;5056147;28;20147;-61
2023/07/06 06:47:16;;;;;;;23.52;7.95;;;;;;;;;;5066365;28;20056;-62
2023/07/06 06:49:43;;;;;;;18.85;6.85;;;;;;;;;;5068854;28;20056;-62
2023/07/06 06:52:12;;;;;;;19.38;6.93;;;;;;;;;;5062007;27;20047;-62
2023/07/06 06:54:41;;;;;;;27.25;9.50;;;;;;;;;;5083937;27;20107;-62
2023/07/06 06:57:08;;;;;;;25.08;9.30;;;;;;;;;;5068536;28;20089;-62
2023/07/06 06:59:36;;;;;;;20.27;9.30;;;;;;;;;;5068865;27;20048;-63
2023/07/06 07:02:03;;;;;;;;;;;;;;;;;;5054800;28;20063;-61
2023/07/06 07:04:30;;;;;;;26.48;9.50;;;;;;;;;;5056508;28;19924;-62
2023/07/06 07:06:57;;;;;;;28.42;12.23;;;;;;;;;;5067856;28;20159;-62
2023/07/06 07:09:27;;;;;;;20.40;9.05;;;;;;;;;;5073940;28;20151;-64
2023/07/06 07:11:55;;;;;;;29.83;9.82;;;;;;;;;;5053727;28;20052;-62
2023/07/06 07:14:22;;;;;;;21.92;8.93;;;;;;;;;;5057047;28;20045;-62
2023/07/06 07:16:49;;;;;;;22.98;9.68;;;;;;;;;;5071834;28;20053;-61
2023/07/06 07:19:18;;;;;;;20.90;8.02;;;;;;;;;;5071942;28;20057;-62
2023/07/06 07:21:44;;;;;;;;;;;;;;;;;;5039031;28;20045;-62
2023/07/06 07:24:11;;;;;;;20.70;7.28;;;;;;;;;;5069197;28;19920;-62
2023/07/06 07:26:38;;;;;;;23.00;7.97;;;;;;;;;;5063681;28;20041;-62
2023/07/06 07:29:09;;;;;;;20.00;8.02;;;;;;;;;;5061894;28;20063;-62
2023/07/06 07:31:37;;;;;;;20.08;7.53;;;;;;;;;;5048759;28;20078;-62
2023/07/06 07:34:05;;;;;;;18.27;7.95;;;;;;;;;;5070704;28;20052;-62
2023/07/06 07:36:34;;;;;;;27.85;9.55;;;;;;;;;;5059247;28;20052;-62
2023/07/06 07:39:01;;;;;;;;;;;;;;;;;;5077440;28;20143;-62
2023/07/06 07:41:28;;;;;;;21.92;8.25;;;;;;;;;;5045324;28;19924;-62
2023/07/06 07:44:01;;;;;;;18.98;8.70;;;;;;;;;;5073307;28;20044;-62
2023/07/06 07:46:29;;;;;;;20.17;8.13;;;;;;;;;;5079303;28;20051;-61
2023/07/06 07:48:57;;;;;;;21.10;8.35;;;;;;;;;;5081174;28;20147;-65
2023/07/06 07:51:26;;;;;;;22.75;8.68;;;;;;;;;;4993332;28;20041;-63
2023/07/06 07:53:54;;;;;;;20.75;8.43;;;;;;;;;;5034494;28;20057;-62
2023/07/06 07:56:22;;;;;;;21.80;9.65;;;;;;;;;;5041780;28;20056;-62
2023/07/06 07:58:50;;;;;;;24.60;8.68;;;;;;;;;;5060534;28;20067;-63
2023/07/06 08:01:18;;;;;;;19.75;8.82;;;;;;;;;;5061873;28;20098;-62
2023/07/06 08:03:46;;;;;;;24.92;9.38;;;;;;;;;;5052530;28;20087;-62
2023/07/06 08:06:16;;;;;;;20.25;8.30;;;;;;;;;;5060189;28;20063;-62
2023/07/06 08:08:44;;;;;;;19.27;7.60;;;;;;;;;;5057864;28;20332;-61
2023/07/06 08:11:11;;;;;;;23.08;8.05;;;;;;;;;;5056235;28;20122;-63
2023/07/06 08:13:38;;;;;;;21.93;7.53;;;;;;;;;;5032492;28;20060;-62
2023/07/06 08:16:07;;;;;;;19.63;7.88;;;;;;;;;;5039697;28;20299;-62
2023/07/06 08:18:34;;;;;;;21.70;10.07;;;;;;;;;;5025265;28;20140;-63
2023/07/06 08:21:03;;;;;;;25.63;10.05;;;;;;;;;;5019189;28;20085;-62
2023/07/06 08:23:29;;;;;;;;;;;;;;;;;;5003949;28;20081;-62
2023/07/06 08:25:57;;;;;;;18.05;7.20;;;;;;;;;;5036247;28;19928;-65
2023/07/06 08:28:31;;;;;;;17.70;7.10;;;;;;;;;;5039970;28;20071;-62
2023/07/06 08:31:02;;;;;;;21.33;7.82;;;;;;;;;;5038248;28;20044;-63
2023/07/06 08:33:30;;;;;;;19.52;7.20;;;;;;;;;;5049778;28;20152;-64
2023/07/06 08:36:01;;;;;;;54.00;23.03;;;;;;;;;;5058181;28;20056;-62
2023/07/06 08:38:33;;;;;;;19.85;8.38;;;;;;;;;;5058287;28;20302;-64
2023/07/06 08:41:03;;;;;;;19.38;7.22;;;;;;;;;;5037434;28;20053;-63
2023/07/06 08:43:32;;;;;;;18.20;6.72;;;;;;;;;;5011315;28;20061;-64
2023/07/06 08:46:02;;;;;;;21.33;7.78;;;;;;;;;;5015673;28;20172;-64
2023/07/06 08:48:32;;;;;;;18.13;7.90;;;;;;;;;;5035201;28;20053;-64
2023/07/06 08:51:01;;;;;;;17.55;7.20;;;;;;;;;;5038740;28;20057;-64
2023/07/06 08:53:32;;;;;;;15.02;6.82;;;;;;;;;;5039103;28;20056;-62
2023/07/06 08:56:03;;;;;;;18.83;6.95;;;;;;;;;;5056221;28;20071;-62
2023/07/06 08:58:33;;;;;;;13.27;6.55;;;;;;;;;;5057579;28;20079;-62
2023/07/06 09:01:04;;;;;;;17.95;6.60;;;;;;;;;;5064403;28;20044;-62
2023/07/06 09:03:37;;;;;;;20.63;7.32;;;;;;;;;;5007691;28;20057;-63
2023/07/06 09:06:07;;;;;;;13.55;6.28;;;;;;;;;;5038863;28;20069;-62
2023/07/06 09:08:45;;;;;;;21.67;6.45;;;;;;;;;;5036696;28;20049;-62
2023/07/06 09:11:14;;;;;;;15.63;5.88;;;;;;;;;;5017081;28;20063;-62
2023/07/06 09:13:46;;;;;;;17.33;6.75;;;;;;;;;;5041563;28;20176;-62
2023/07/06 09:16:18;;;;;;;15.73;6.05;;;;;;;;;;5037832;28;20049;-62
2023/07/06 09:18:50;;;;;;;19.25;7.43;;;;;;;;;;5072361;28;20060;-63
2023/07/06 09:21:22;;;;;;;15.43;6.60;;;;;;;;;;5057879;28;20143;-63
2023/07/06 09:23:50;;;;;;;13.82;5.32;;;;;;;;;;5016068;28;20072;-63
2023/07/06 09:26:21;;;;;;;14.20;5.63;;;;;;;;;;5038272;28;20064;-63
2023/07/06 09:28:48;;;;;;;26.98;11.95;;;;;;;;;;5038697;28;20068;-63
2023/07/06 09:31:18;;;;;;;25.40;9.65;;;;;;;;;;5038146;28;20072;-64
2023/07/06 09:33:45;;;;;;;18.23;7.50;;;;;;;;;;5019118;28;20105;-65
2023/07/06 09:36:18;;;;;;;18.05;6.18;;;;;;;;;;5036619;28;20172;-62
2023/07/06 09:38:47;;;;;;;16.35;6.13;;;;;;;;;;5020172;28;20077;-62
2023/07/06 09:41:22;;;;;;;13.57;5.97;;;;;;;;;;5033563;28;20045;-63
2023/07/06 09:43:57;;;;;;;18.52;6.82;;;;;;;;;;5020211;28;20101;-62
2023/07/06 09:46:25;;;;;;;19.25;6.53;;;;;;;;;;5037277;28;20056;-62
2023/07/06 09:48:51;;;;;;;25.60;7.53;;;;;;;;;;5038974;28;20060;-64
2023/07/06 09:51:21;;;;;;;31.42;7.07;;;;;;;;;;5027612;28;20057;-63
2023/07/06 09:53:50;;;;;;;15.25;6.00;;;;;;;;;;4993762;28;20061;-64
2023/07/06 09:56:18;;;;;;;17.63;7.65;;;;;;;;;;5032920;28;20096;-62
2023/07/06 09:58:49;;;;;;;20.85;7.85;;;;;;;;;;5019328;28;20065;-65
2023/07/06 10:01:23;;;;;;;15.90;6.82;;;;;;;;;;5015632;28;20076;-64
2023/07/06 10:04:00;;;;;;;15.43;5.88;;;;;;;;;;5026370;28;20053;-65
2023/07/06 10:06:36;;;;;;;16.10;6.88;;;;;;;;;;5022748;28;20108;-63
2023/07/06 10:09:09;;;;;;;14.73;6.38;;;;;;;;;;5024270;28;20082;-63
2023/07/06 10:11:43;;;;;;;14.10;5.38;;;;;;;;;;5022658;28;20060;-64
2023/07/06 10:14:20;;;;;;;16.15;6.55;;;;;;;;;;5056083;28;20088;-65
2023/07/06 10:16:55;;;;;;;15.88;6.38;;;;;;;;;;5055658;28;20110;-65
2023/07/06 10:19:31;;;;;;;11.50;5.60;;;;;;;;;;5045072;28;20056;-65
2023/07/06 10:22:08;;;;;;;17.02;5.70;;;;;;;;;;5016985;28;20069;-65
2023/07/06 10:24:41;;;;;;;10.80;4.90;;;;;;;;;;5031465;28;20049;-65
2023/07/06 10:27:15;;;;;;;11.07;5.22;;;;;;;;;;5037111;28;20060;-65
2023/07/06 10:29:56;;;;;;;16.70;4.40;;;;;;;;;;5046884;28;20063;-64
2023/07/06 10:32:26;;;;;;;11.38;4.95;;;;;;;;;;5005496;28;20118;-64
2023/07/06 10:34:58;;;;;;;14.52;4.10;;;;;;;;;;5036691;28;20052;-64
2023/07/06 10:37:31;;;;;;;8.40;3.80;;;;;;;;;;5033120;28;20063;-65
2023/07/06 10:40:11;;;;;;;10.63;3.88;;;;;;;;;;5032215;28;20057;-64
2023/07/06 10:42:51;;;;;;;10.18;4.00;;;;;;;;;;5006283;28;20158;-65
2023/07/06 10:45:42;;;;;;;14.73;4.53;;;;;;;;;;5056441;28;20091;-64
2023/07/06 10:48:13;;;;;;;13.30;4.35;;;;;;;;;;5060033;28;20114;-64
2023/07/06 10:50:47;;;;;;;12.75;4.78;;;;;;;;;;5035441;28;20060;-65
2023/07/06 10:53:23;;;;;;;9.73;3.92;;;;;;;;;;5029680;28;20060;-64
2023/07/06 10:55:59;;;;;;;10.35;4.07;;;;;;;;;;5033545;28;20090;-65
2023/07/06 10:58:28;;;;;;;12.02;3.95;;;;;;;;;;5047273;28;20052;-66
2023/07/06 11:00:58;;;;;;;12.77;4.18;;;;;;;;;;5041582;28;20075;-65
2023/07/06 11:03:28;;;;;;;14.82;4.38;;;;;;;;;;5038625;28;20056;-65
2023/07/06 11:06:06;;;;;;;8.73;4.13;;;;;;;;;;5050022;28;20052;-65
2023/07/06 11:09:22;;;;;;;24.60;4.88;;;;;;;;;;5050194;28;20064;-65
2023/07/06 11:12:20;;;;;;;18.50;5.75;;;;;;;;;;5031037;28;20055;-66
2023/07/06 11:14:48;;;;;;;14.85;6.13;;;;;;;;;;5028684;28;20134;-64
2023/07/06 11:17:36;;;;;;;15.10;5.57;;;;;;;;;;5051525;28;20057;-66
2023/07/06 11:20:07;;;;;;;15.13;4.50;;;;;;;;;;5035886;28;20059;-64
2023/07/06 11:22:34;;;;;;;14.80;4.07;;;;;;;;;;5024029;28;20064;-65
2023/07/06 11:25:12;;;;;;;12.45;4.35;;;;;;;;;;5035756;28;20164;-64
2023/07/06 11:27:39;;;;;;;15.73;3.10;;;;;;;;;;5003943;28;20064;-64
2023/07/06 11:30:14;;;;;;;10.10;3.85;;;;;;;;;;4950032;28;20315;-63
2023/07/06 11:32:55;;;;;;;8.73;3.60;;;;;;;;;;4985599;28;20069;-63
2023/07/06 11:35:48;;;;;;;10.43;3.50;;;;;;;;;;5019519;28;20081;-63
2023/07/06 11:38:31;;;;;;;12.40;4.93;;;;;;;;;;5015108;28;20064;-63
2023/07/06 11:41:13;;;;;;;10.95;4.28;;;;;;;;;;5017777;28;20061;-63
2023/07/06 11:43:53;;;;;;;10.95;3.67;;;;;;;;;;5008635;28;20060;-64
2023/07/06 11:46:32;;;;;;;8.88;3.53;;;;;;;;;;5035150;28;20132;-63
2023/07/06 11:49:12;;;;;;;7.50;3.05;;;;;;;;;;5047543;28;20157;-64
2023/07/06 11:51:39;;;;;;;9.70;3.15;;;;;;;;;;5036326;28;20061;-64
2023/07/06 11:54:07;;;;;;;11.38;3.47;;;;;;;;;;5042684;28;20063;-64
2023/07/06 11:56:39;;;;;;;;;;;;;;;;;;5072157;28;20076;-64
2023/07/06 11:59:15;;;;;;;8.05;2.83;;;;;;;;;;5056750;28;19924;-63
2023/07/06 12:01:45;;;;;;;8.85;3.30;;;;;;;;;;5041389;28;20053;-64
2023/07/06 12:04:20;;;;;;;9.93;3.35;;;;;;;;;;5056305;28;20103;-63
2023/07/06 12:06:48;;;;;;;7.75;2.88;;;;;;;;;;5042077;28;20068;-63
2023/07/06 12:09:19;;;;;;;6.00;2.60;;;;;;;;;;5048095;28;20109;-63
2023/07/06 12:12:07;;;;;;;6.18;2.58;;;;;;;;;;5047647;28;20064;-64
2023/07/06 12:14:35;;;;;;;9.68;3.15;;;;;;;;;;5057751;28;20135;-63
2023/07/06 12:17:05;;;;;;;10.27;3.17;;;;;;;;;;5058426;28;20120;-63
2023/07/06 12:19:41;;;;;;;8.10;2.20;;;;;;;;;;5055892;28;20139;-62
2023/07/06 12:22:14;;;;;;;5.53;2.13;;;;;;;;;;5056113;28;20048;-63
2023/07/06 12:24:41;;;;;;;12.10;2.38;;;;;;;;;;5054874;28;20065;-62
2023/07/06 12:27:13;;;;;;;7.63;2.15;;;;;;;;;;5054475;28;20079;-63
2023/07/06 12:29:42;;;;;;;6.57;2.10;;;;;;;;;;5056524;28;20056;-64
2023/07/06 12:32:15;;;;;;;8.63;2.17;;;;;;;;;;5045155;28;20055;-63
2023/07/06 12:34:45;;;;;;;8.30;1.92;;;;;;;;;;5054684;28;20056;-62
2023/07/06 12:37:13;;;;;;;5.82;1.67;;;;;;;;;;5059910;28;20152;-63
2023/07/06 12:39:43;;;;;;;6.80;2.05;;;;;;;;;;5050665;28;20113;-63
2023/07/06 12:42:12;;;;;;;8.43;2.20;;;;;;;;;;5030495;28;20061;-64
2023/07/06 12:44:43;;;;;;;7.50;1.80;;;;;;;;;;5024462;28;20128;-63
2023/07/06 12:47:23;;;;;;;12.82;2.33;;;;;;;;;;5017690;28;20081;-63
2023/07/06 12:49:52;;;;;;;9.95;2.67;;;;;;;;;;5010973;28;20087;-64
2023/07/06 12:52:24;;;;;;;4.20;1.80;;;;;;;;;;5012298;28;20123;-64
2023/07/06 12:54:53;;;;;;;5.53;2.05;;;;;;;;;;5052348;28;20068;-64
2023/07/06 12:57:23;;;;;;;7.10;2.00;;;;;;;;;;5039460;28;20160;-65
2023/07/06 12:59:53;;;;;;;6.18;1.70;;;;;;;;;;5050053;28;20060;-64
2023/07/06 13:02:24;;;;;;;5.38;2.03;;;;;;;;;;4988491;28;20064;-63
2023/07/06 13:05:01;;;;;;;6.60;1.70;;;;;;;;;;5022857;28;20064;-64
2023/07/06 13:07:29;;;;;;;30.75;16.17;;;;;;;;;;5036790;28;20056;-65
2023/07/06 13:09:58;;;;;;;16.92;7.13;;;;;;;;;;5052727;28;20113;-64
2023/07/06 13:12:26;;;;;;;10.40;3.95;;;;;;;;;;5040491;28;20064;-64
2023/07/06 13:14:53;;;;;;;9.05;2.20;;;;;;;;;;5032130;28;20051;-63
2023/07/06 13:17:29;;;;;;;14.23;1.80;;;;;;;;;;5057135;28;20048;-63
2023/07/06 13:20:04;;;;;;;13.35;6.82;;;;;;;;;;5057527;28;20056;-64
2023/07/06 13:22:31;;;;;;;7.25;2.45;;;;;;;;;;5054869;28;20044;-63
2023/07/06 13:25:03;;;;;;;4.72;1.80;;;;;;;;;;5078670;28;20072;-63
2023/07/06 13:27:33;;;;;;;2.05;1.30;;;;;;;;;;5071756;28;20052;-65
2023/07/06 13:30:02;;;;;;;8.35;0.98;;;;;;;;;;5073576;28;20052;-63
2023/07/06 13:32:29;;;;;;;3.72;1.23;;;;;;;;;;5045074;28;20056;-62
2023/07/06 13:35:03;;;;;;;5.32;1.20;;;;;;;;;;5064870;28;20056;-64
2023/07/06 13:37:34;;;;;;;3.63;1.02;;;;;;;;;;5049283;28;20060;-64
2023/07/06 13:40:01;;;;;;;;;;;;;;;;;;5074612;28;20063;-63
2023/07/06 13:42:29;;;;;;;1.88;0.88;;;;;;;;;;5079432;28;19936;-63
2023/07/06 13:44:57;;;;;;;5.30;1.27;;;;;;;;;;5077970;28;20121;-63
2023/07/06 13:47:28;;;;;;;3.50;1.23;;;;;;;;;;5077717;28;20096;-64
2023/07/06 13:49:58;;;;;;;2.15;0.80;;;;;;;;;;5061387;28;20062;-63
2023/07/06 13:52:29;;;;;;;3.45;0.90;;;;;;;;;;5030979;28;20114;-63
2023/07/06 13:54:55;;;;;;;7.07;1.00;;;;;;;;;;5080038;28;20104;-63
2023/07/06 13:57:25;;;;;;;2.33;1.00;;;;;;;;;;5097179;28;20082;-63
2023/07/06 13:59:51;;;;;;;3.58;1.05;;;;;;;;;;5086373;28;20124;-62
2023/07/06 14:02:21;;;;;;;4.35;0.82;;;;;;;;;;5093018;28;20055;-62
2023/07/06 14:04:48;;;;;;;8.55;4.20;;;;;;;;;;5098318;28;20063;-62
2023/07/06 14:07:18;;;;;;;3.55;1.55;;;;;;;;;;5079742;28;20052;-62
2023/07/06 14:09:46;;;;;;;17.88;10.50;;;;;;;;;;5061127;28;20274;-62
2023/07/06 14:12:16;;;;;;;6.47;1.75;;;;;;;;;;5042262;28;20063;-62
2023/07/06 14:14:49;;;;;;;5.15;1.30;;;;;;;;;;5075902;28;20163;-61
2023/07/06 14:17:16;;;;;;;2.65;1.23;;;;;;;;;;5076852;28;20132;-62
2023/07/06 14:19:42;;;;;;;8.95;1.20;;;;;;;;;;5070349;28;20063;-62
2023/07/06 14:22:09;;;;;;;4.05;1.10;;;;;;;;;;5056174;28;20071;-62
2023/07/06 14:24:37;;;;;;;3.38;1.00;;;;;;;;;;5092457;28;20055;-62
2023/07/06 14:27:05;;;;;;;5.32;1.40;;;;;;;;;;5074961;28;20048;-63
2023/07/06 14:29:32;;;;;;;;;;;;;;;;;;5075461;28;20133;-62
2023/07/06 14:32:00;;;;;;;2.80;1.05;;;;;;;;;;5072702;28;19981;-62
2023/07/06 14:34:27;;;;;;;5.60;0.98;;;;;;;;;;5091374;28;20140;-62
2023/07/06 14:36:55;;;;;;;4.32;1.20;;;;;;;;;;5075917;28;20110;-62
2023/07/06 14:39:25;;;;;;;4.28;1.20;;;;;;;;;;5076854;28;20048;-63
2023/07/06 14:41:52;;;;;;;3.97;1.07;;;;;;;;;;5069833;28;20056;-63
2023/07/06 14:44:21;;;;;;;2.42;1.08;;;;;;;;;;5079226;28;20048;-63
2023/07/06 14:46:48;;;;;;;2.38;0.95;;;;;;;;;;5078982;28;20049;-63
2023/07/06 14:49:15;;;;;;;3.15;0.98;;;;;;;;;;5075316;28;20143;-63
2023/07/06 14:51:41;;;;;;;4.75;1.42;;;;;;;;;;5067957;28;20056;-63
2023/07/06 14:54:08;;;;;;;2.70;1.00;;;;;;;;;;5071934;28;20129;-63